sensor_id;sensor_type;location;lat;lon;timestamp;pressure;altitude;pressure_sealevel;temperature;humidity
7834;BME280;3962;42.696;23.354;2024-02-23T00:01:50;94901.31;;;6.85;72.75
7834;BME280;3962;42.696;23.354;2024-02-23T00:04:17;94897.00;;;6.94;71.99
7834;BME280;3962;42.696;23.354;2024-02-23T00:06:45;94905.50;;;6.97;72.47
7834;BME280;3962;42.696;23.354;2024-02-23T00:09:11;94899.13;;;7.00;71.53
7834;BME280;3962;42.696;23.354;2024-02-23T00:11:40;94893.00;;;7.08;71.58
7834;BME280;3962;42.696;23.354;2024-02-23T00:14:10;94885.22;;;6.98;71.30
7834;BME280;3962;42.696;23.354;2024-02-23T00:16:40;94885.34;;;6.96;70.89
7834;BME280;3962;42.696;23.354;2024-02-23T00:19:07;94899.69;;;7.03;70.41
7834;BME280;3962;42.696;23.354;2024-02-23T00:21:35;94891.91;;;7.11;70.93
7834;BME280;3962;42.696;23.354;2024-02-23T00:24:02;94889.97;;;7.13;71.50
7834;BME280;3962;42.696;23.354;2024-02-23T00:26:29;94895.94;;;7.15;71.07
7834;BME280;3962;42.696;23.354;2024-02-23T00:28:57;94885.06;;;7.08;70.73
7834;BME280;3962;42.696;23.354;2024-02-23T00:31:24;94899.00;;;7.10;71.65
7834;BME280;3962;42.696;23.354;2024-02-23T00:33:50;94880.06;;;7.15;71.60
7834;BME280;3962;42.696;23.354;2024-02-23T00:36:17;94881.19;;;7.22;70.40
7834;BME280;3962;42.696;23.354;2024-02-23T00:38:44;94889.13;;;7.22;70.52
7834;BME280;3962;42.696;23.354;2024-02-23T00:41:11;94877.03;;;7.29;70.97
7834;BME280;3962;42.696;23.354;2024-02-23T00:43:38;94877.59;;;7.32;70.07
7834;BME280;3962;42.696;23.354;2024-02-23T00:46:07;94889.69;;;7.25;70.30
7834;BME280;3962;42.696;23.354;2024-02-23T00:48:34;94877.44;;;7.24;70.56
7834;BME280;3962;42.696;23.354;2024-02-23T00:51:01;94878.56;;;7.22;70.99
7834;BME280;3962;42.696;23.354;2024-02-23T00:53:28;94872.84;;;7.17;71.72
7834;BME280;3962;42.696;23.354;2024-02-23T00:55:55;94865.59;;;7.19;71.91
7834;BME280;3962;42.696;23.354;2024-02-23T00:58:21;94862.81;;;7.30;71.32
7834;BME280;3962;42.696;23.354;2024-02-23T01:00:48;94855.16;;;7.27;70.49
7834;BME280;3962;42.696;23.354;2024-02-23T01:03:16;94854.03;;;7.20;69.94
7834;BME280;3962;42.696;23.354;2024-02-23T01:05:43;94849.19;;;7.15;69.89
7834;BME280;3962;42.696;23.354;2024-02-23T01:08:10;94860.28;;;7.09;70.46
7834;BME280;3962;42.696;23.354;2024-02-23T01:10:36;94858.50;;;7.10;71.27
7834;BME280;3962;42.696;23.354;2024-02-23T01:13:03;94852.50;;;7.08;71.15
7834;BME280;3962;42.696;23.354;2024-02-23T01:15:31;94862.94;;;7.09;70.96
7834;BME280;3962;42.696;23.354;2024-02-23T01:17:57;94867.00;;;7.13;71.80
7834;BME280;3962;42.696;23.354;2024-02-23T01:20:25;94848.75;;;7.01;71.91
7834;BME280;3962;42.696;23.354;2024-02-23T01:22:52;94845.97;;;7.12;71.97
7834;BME280;3962;42.696;23.354;2024-02-23T01:25:19;94857.81;;;7.08;71.28
7834;BME280;3962;42.696;23.354;2024-02-23T01:27:46;94848.91;;;7.09;71.74
7834;BME280;3962;42.696;23.354;2024-02-23T01:30:13;94845.13;;;7.02;71.65
7834;BME280;3962;42.696;23.354;2024-02-23T01:32:40;94830.91;;;7.03;72.07
7834;BME280;3962;42.696;23.354;2024-02-23T01:35:08;94833.81;;;7.00;71.14
7834;BME280;3962;42.696;23.354;2024-02-23T01:37:36;94836.34;;;7.02;71.00
7834;BME280;3962;42.696;23.354;2024-02-23T01:40:04;94830.78;;;7.05;71.78
7834;BME280;3962;42.696;23.354;2024-02-23T01:42:31;94834.13;;;7.07;72.04
7834;BME280;3962;42.696;23.354;2024-02-23T01:44:58;94827.00;;;7.07;71.66
7834;BME280;3962;42.696;23.354;2024-02-23T01:47:25;94827.59;;;7.20;70.30
7834;BME280;3962;42.696;23.354;2024-02-23T01:49:54;94831.91;;;7.21;70.08
7834;BME280;3962;42.696;23.354;2024-02-23T01:52:22;94830.81;;;7.23;70.59
7834;BME280;3962;42.696;23.354;2024-02-23T01:54:50;94829.25;;;7.21;70.59
7834;BME280;3962;42.696;23.354;2024-02-23T01:57:18;94829.53;;;7.18;70.73
7834;BME280;3962;42.696;23.354;2024-02-23T01:59:44;94824.38;;;7.07;70.86
7834;BME280;3962;42.696;23.354;2024-02-23T02:02:11;94810.44;;;7.05;70.84
7834;BME280;3962;42.696;23.354;2024-02-23T02:04:38;94817.00;;;7.01;70.75
7834;BME280;3962;42.696;23.354;2024-02-23T02:07:05;94821.84;;;6.96;71.48
7834;BME280;3962;42.696;23.354;2024-02-23T02:09:32;94821.56;;;6.90;72.15
7834;BME280;3962;42.696;23.354;2024-02-23T02:12:00;94811.81;;;6.81;72.24
7834;BME280;3962;42.696;23.354;2024-02-23T02:14:27;94815.16;;;6.83;72.80
7834;BME280;3962;42.696;23.354;2024-02-23T02:16:56;94817.94;;;6.81;72.89
7834;BME280;3962;42.696;23.354;2024-02-23T02:19:23;94813.63;;;6.80;73.26
7834;BME280;3962;42.696;23.354;2024-02-23T02:21:50;94804.44;;;6.94;72.13
7834;BME280;3962;42.696;23.354;2024-02-23T02:24:17;94809.75;;;6.94;71.57
7834;BME280;3962;42.696;23.354;2024-02-23T02:26:44;94811.25;;;6.87;72.58
7834;BME280;3962;42.696;23.354;2024-02-23T02:29:13;94819.59;;;6.82;72.60
7834;BME280;3962;42.696;23.354;2024-02-23T02:31:40;94815.00;;;6.84;72.12
7834;BME280;3962;42.696;23.354;2024-02-23T02:34:07;94806.94;;;6.86;72.22
7834;BME280;3962;42.696;23.354;2024-02-23T02:36:33;94803.44;;;6.76;73.37
7834;BME280;3962;42.696;23.354;2024-02-23T02:39:00;94803.13;;;6.60;73.25
7834;BME280;3962;42.696;23.354;2024-02-23T02:41:28;94806.03;;;6.57;73.27
7834;BME280;3962;42.696;23.354;2024-02-23T02:43:56;94817.16;;;6.60;73.53
7834;BME280;3962;42.696;23.354;2024-02-23T02:46:24;94815.81;;;6.75;73.96
7834;BME280;3962;42.696;23.354;2024-02-23T02:48:51;94810.28;;;6.78;73.27
7834;BME280;3962;42.696;23.354;2024-02-23T02:51:17;94812.78;;;6.80;74.21
7834;BME280;3962;42.696;23.354;2024-02-23T02:53:44;94818.22;;;6.78;73.59
7834;BME280;3962;42.696;23.354;2024-02-23T02:56:11;94824.88;;;6.73;74.23
7834;BME280;3962;42.696;23.354;2024-02-23T02:58:37;94821.22;;;6.64;73.53
7834;BME280;3962;42.696;23.354;2024-02-23T03:01:04;94816.47;;;6.58;74.19
7834;BME280;3962;42.696;23.354;2024-02-23T03:03:32;94813.84;;;6.58;74.83
7834;BME280;3962;42.696;23.354;2024-02-23T03:05:59;94816.75;;;6.65;73.94
7834;BME280;3962;42.696;23.354;2024-02-23T03:08:26;94829.19;;;6.74;74.40
7834;BME280;3962;42.696;23.354;2024-02-23T03:10:52;94809.84;;;6.73;74.74
7834;BME280;3962;42.696;23.354;2024-02-23T03:13:19;94823.50;;;6.88;74.21
7834;BME280;3962;42.696;23.354;2024-02-23T03:15:46;94826.31;;;6.86;73.17
7834;BME280;3962;42.696;23.354;2024-02-23T03:18:13;94822.81;;;6.86;74.53
7834;BME280;3962;42.696;23.354;2024-02-23T03:20:41;94815.84;;;6.85;74.54
7834;BME280;3962;42.696;23.354;2024-02-23T03:23:08;94820.03;;;6.87;73.79
7834;BME280;3962;42.696;23.354;2024-02-23T03:25:35;94827.25;;;6.76;73.77
7834;BME280;3962;42.696;23.354;2024-02-23T03:28:02;94815.41;;;6.70;74.50
7834;BME280;3962;42.696;23.354;2024-02-23T03:30:29;94823.34;;;6.70;74.95
7834;BME280;3962;42.696;23.354;2024-02-23T03:32:55;94824.88;;;6.73;75.15
7834;BME280;3962;42.696;23.354;2024-02-23T03:35:22;94831.16;;;6.81;74.81
7834;BME280;3962;42.696;23.354;2024-02-23T03:37:50;94830.16;;;6.82;74.39
7834;BME280;3962;42.696;23.354;2024-02-23T03:40:17;94827.97;;;6.87;74.45
7834;BME280;3962;42.696;23.354;2024-02-23T03:42:44;94819.19;;;6.87;74.70
7834;BME280;3962;42.696;23.354;2024-02-23T03:45:11;94821.25;;;6.74;74.36
7834;BME280;3962;42.696;23.354;2024-02-23T03:47:38;94808.94;;;6.54;75.05
7834;BME280;3962;42.696;23.354;2024-02-23T03:50:06;94813.66;;;6.50;74.63
7834;BME280;3962;42.696;23.354;2024-02-23T03:52:33;94816.06;;;6.53;75.60
7834;BME280;3962;42.696;23.354;2024-02-23T03:55:01;94815.50;;;6.59;74.79
7834;BME280;3962;42.696;23.354;2024-02-23T03:57:29;94819.56;;;6.63;75.11
7834;BME280;3962;42.696;23.354;2024-02-23T03:59:57;94823.91;;;6.74;74.37
7834;BME280;3962;42.696;23.354;2024-02-23T04:02:24;94830.00;;;6.74;75.04
7834;BME280;3962;42.696;23.354;2024-02-23T04:04:51;94838.78;;;6.75;75.15
7834;BME280;3962;42.696;23.354;2024-02-23T04:07:17;94828.34;;;6.73;74.54
7834;BME280;3962;42.696;23.354;2024-02-23T04:09:44;94837.38;;;6.71;74.47
7834;BME280;3962;42.696;23.354;2024-02-23T04:12:18;94827.22;;;6.66;74.49
7834;BME280;3962;42.696;23.354;2024-02-23T04:14:45;94825.56;;;6.75;74.90
7834;BME280;3962;42.696;23.354;2024-02-23T04:17:12;94827.25;;;6.76;73.64
7834;BME280;3962;42.696;23.354;2024-02-23T04:19:39;94835.84;;;6.68;74.16
7834;BME280;3962;42.696;23.354;2024-02-23T04:22:06;94833.34;;;6.67;74.29
7834;BME280;3962;42.696;23.354;2024-02-23T04:24:34;94831.69;;;6.75;74.21
7834;BME280;3962;42.696;23.354;2024-02-23T04:27:00;94827.78;;;6.70;73.70
7834;BME280;3962;42.696;23.354;2024-02-23T04:29:28;94820.78;;;6.59;74.15
7834;BME280;3962;42.696;23.354;2024-02-23T04:31:54;94828.16;;;6.56;73.61
7834;BME280;3962;42.696;23.354;2024-02-23T04:34:22;94830.53;;;6.59;74.28
7834;BME280;3962;42.696;23.354;2024-02-23T04:36:49;94831.38;;;6.59;73.95
7834;BME280;3962;42.696;23.354;2024-02-23T04:39:16;94832.91;;;6.62;75.08
7834;BME280;3962;42.696;23.354;2024-02-23T04:41:42;94821.88;;;6.47;73.55
7834;BME280;3962;42.696;23.354;2024-02-23T04:44:09;94826.25;;;6.28;75.04
7834;BME280;3962;42.696;23.354;2024-02-23T04:46:37;94827.75;;;6.21;75.49
7834;BME280;3962;42.696;23.354;2024-02-23T04:49:04;94842.34;;;6.25;75.27
7834;BME280;3962;42.696;23.354;2024-02-23T04:51:31;94841.59;;;6.13;75.89
7834;BME280;3962;42.696;23.354;2024-02-23T04:53:58;94844.00;;;6.16;76.50
7834;BME280;3962;42.696;23.354;2024-02-23T04:56:24;94846.34;;;6.19;75.72
7834;BME280;3962;42.696;23.354;2024-02-23T04:58:51;94841.06;;;6.19;76.05
7834;BME280;3962;42.696;23.354;2024-02-23T05:01:18;94850.44;;;6.23;76.17
7834;BME280;3962;42.696;23.354;2024-02-23T05:03:46;94842.53;;;6.33;75.96
7834;BME280;3962;42.696;23.354;2024-02-23T05:06:12;94851.91;;;6.46;74.83
7834;BME280;3962;42.696;23.354;2024-02-23T05:08:39;94842.75;;;6.50;74.39
7834;BME280;3962;42.696;23.354;2024-02-23T05:11:06;94844.13;;;6.45;73.86
7834;BME280;3962;42.696;23.354;2024-02-23T05:13:33;94854.06;;;6.32;75.11
7834;BME280;3962;42.696;23.354;2024-02-23T05:16:00;94849.16;;;6.18;74.82
7834;BME280;3962;42.696;23.354;2024-02-23T05:18:26;94853.31;;;6.20;75.69
7834;BME280;3962;42.696;23.354;2024-02-23T05:20:54;94868.59;;;6.17;76.04
7834;BME280;3962;42.696;23.354;2024-02-23T05:23:21;94865.69;;;6.20;76.09
7834;BME280;3962;42.696;23.354;2024-02-23T05:25:48;94868.66;;;6.26;76.16
7834;BME280;3962;42.696;23.354;2024-02-23T05:28:15;94871.34;;;6.36;74.62
7834;BME280;3962;42.696;23.354;2024-02-23T05:30:42;94867.03;;;6.35;74.69
7834;BME280;3962;42.696;23.354;2024-02-23T05:33:08;94866.13;;;6.25;75.95
7834;BME280;3962;42.696;23.354;2024-02-23T05:35:35;94873.56;;;6.10;75.72
7834;BME280;3962;42.696;23.354;2024-02-23T05:38:04;94870.91;;;6.10;76.90
7834;BME280;3962;42.696;23.354;2024-02-23T05:40:31;94865.75;;;6.09;75.63
7834;BME280;3962;42.696;23.354;2024-02-23T05:42:58;94869.25;;;6.09;76.56
7834;BME280;3962;42.696;23.354;2024-02-23T05:45:25;94867.59;;;6.08;77.02
7834;BME280;3962;42.696;23.354;2024-02-23T05:47:52;94865.16;;;5.96;76.54
7834;BME280;3962;42.696;23.354;2024-02-23T05:50:19;94881.63;;;5.88;77.09
7834;BME280;3962;42.696;23.354;2024-02-23T05:52:45;94882.72;;;5.86;77.12
7834;BME280;3962;42.696;23.354;2024-02-23T05:55:14;94889.81;;;5.74;78.42
7834;BME280;3962;42.696;23.354;2024-02-23T05:57:41;94893.91;;;5.78;78.92
7834;BME280;3962;42.696;23.354;2024-02-23T06:00:08;94890.06;;;6.03;77.61
7834;BME280;3962;42.696;23.354;2024-02-23T06:02:35;94891.47;;;6.07;77.00
7834;BME280;3962;42.696;23.354;2024-02-23T06:05:02;94906.53;;;5.95;77.68
7834;BME280;3962;42.696;23.354;2024-02-23T06:07:29;94897.34;;;5.90;78.04
7834;BME280;3962;42.696;23.354;2024-02-23T06:09:56;94883.31;;;6.10;76.73
7834;BME280;3962;42.696;23.354;2024-02-23T06:12:24;94884.97;;;6.11;76.39
7834;BME280;3962;42.696;23.354;2024-02-23T06:14:52;94899.16;;;6.10;76.69
7834;BME280;3962;42.696;23.354;2024-02-23T06:17:20;94904.75;;;6.16;77.05
7834;BME280;3962;42.696;23.354;2024-02-23T06:19:48;94906.88;;;6.22;76.35
7834;BME280;3962;42.696;23.354;2024-02-23T06:22:15;94908.72;;;6.31;76.20
7834;BME280;3962;42.696;23.354;2024-02-23T06:24:46;94904.78;;;6.46;76.38
7834;BME280;3962;42.696;23.354;2024-02-23T06:27:13;94914.91;;;6.71;74.96
7834;BME280;3962;42.696;23.354;2024-02-23T06:29:41;94921.16;;;6.80;74.43
7834;BME280;3962;42.696;23.354;2024-02-23T06:32:08;94913.25;;;6.80;74.31
7834;BME280;3962;42.696;23.354;2024-02-23T06:34:34;94906.16;;;6.80;73.51
7834;BME280;3962;42.696;23.354;2024-02-23T06:37:01;94905.38;;;6.99;73.10
7834;BME280;3962;42.696;23.354;2024-02-23T06:39:28;94901.66;;;7.01;71.92
7834;BME280;3962;42.696;23.354;2024-02-23T06:41:55;94904.13;;;7.03;72.38
7834;BME280;3962;42.696;23.354;2024-02-23T06:44:23;94905.50;;;6.97;72.77
7834;BME280;3962;42.696;23.354;2024-02-23T06:46:51;94906.22;;;6.99;73.01
7834;BME280;3962;42.696;23.354;2024-02-23T06:49:17;94918.91;;;7.05;72.63
7834;BME280;3962;42.696;23.354;2024-02-23T06:51:44;94916.09;;;6.97;72.57
7834;BME280;3962;42.696;23.354;2024-02-23T06:54:11;94917.66;;;7.09;73.08
7834;BME280;3962;42.696;23.354;2024-02-23T06:56:38;94915.75;;;7.30;71.84
7834;BME280;3962;42.696;23.354;2024-02-23T06:59:06;94921.34;;;7.36;71.29
7834;BME280;3962;42.696;23.354;2024-02-23T07:01:33;94922.16;;;7.37;71.59
7834;BME280;3962;42.696;23.354;2024-02-23T07:04:02;94917.69;;;7.28;71.54
7834;BME280;3962;42.696;23.354;2024-02-23T07:06:29;94912.00;;;7.32;71.89
7834;BME280;3962;42.696;23.354;2024-02-23T07:08:57;94914.66;;;7.42;72.86
7834;BME280;3962;42.696;23.354;2024-02-23T07:11:24;94912.44;;;7.47;71.47
7834;BME280;3962;42.696;23.354;2024-02-23T07:13:51;94916.34;;;7.52;72.70
7834;BME280;3962;42.696;23.354;2024-02-23T07:16:18;94921.22;;;7.47;72.02
7834;BME280;3962;42.696;23.354;2024-02-23T07:18:44;94923.03;;;7.56;72.81
7834;BME280;3962;42.696;23.354;2024-02-23T07:21:13;94907.72;;;7.69;71.75
7834;BME280;3962;42.696;23.354;2024-02-23T07:23:40;94907.19;;;7.75;71.94
7834;BME280;3962;42.696;23.354;2024-02-23T07:26:06;94905.06;;;7.69;73.01
7834;BME280;3962;42.696;23.354;2024-02-23T07:28:33;94910.78;;;7.74;72.97
7834;BME280;3962;42.696;23.354;2024-02-23T07:31:00;94902.16;;;7.82;73.54
7834;BME280;3962;42.696;23.354;2024-02-23T07:33:27;94895.03;;;7.82;73.38
7834;BME280;3962;42.696;23.354;2024-02-23T07:35:54;94890.16;;;7.97;73.74
7834;BME280;3962;42.696;23.354;2024-02-23T07:38:22;94905.19;;;8.06;73.41
7834;BME280;3962;42.696;23.354;2024-02-23T07:40:49;94914.66;;;8.27;73.42
7834;BME280;3962;42.696;23.354;2024-02-23T07:43:15;94913.50;;;8.49;72.91
7834;BME280;3962;42.696;23.354;2024-02-23T07:45:42;94912.59;;;8.67;72.55
7834;BME280;3962;42.696;23.354;2024-02-23T07:48:10;94907.25;;;8.86;72.04
7834;BME280;3962;42.696;23.354;2024-02-23T07:50:37;94910.81;;;8.95;71.35
7834;BME280;3962;42.696;23.354;2024-02-23T07:53:04;94902.28;;;9.01;71.38
7834;BME280;3962;42.696;23.354;2024-02-23T07:55:32;94904.19;;;9.08;71.44
7834;BME280;3962;42.696;23.354;2024-02-23T07:57:59;94915.16;;;9.23;71.15
7834;BME280;3962;42.696;23.354;2024-02-23T08:00:27;94913.38;;;9.41;71.14
7834;BME280;3962;42.696;23.354;2024-02-23T08:02:54;94907.78;;;9.61;70.24
7834;BME280;3962;42.696;23.354;2024-02-23T08:05:22;94907.03;;;9.86;69.22
7834;BME280;3962;42.696;23.354;2024-02-23T08:07:48;94901.44;;;10.07;68.83
7834;BME280;3962;42.696;23.354;2024-02-23T08:10:15;94896.81;;;10.09;68.60
7834;BME280;3962;42.696;23.354;2024-02-23T08:12:44;94905.09;;;10.06;69.24
7834;BME280;3962;42.696;23.354;2024-02-23T08:15:10;94911.38;;;10.22;69.50
7834;BME280;3962;42.696;23.354;2024-02-23T08:17:37;94919.69;;;10.45;68.40
7834;BME280;3962;42.696;23.354;2024-02-23T08:20:05;94904.53;;;10.63;67.85
7834;BME280;3962;42.696;23.354;2024-02-23T08:22:33;94899.56;;;10.68;67.56
7834;BME280;3962;42.696;23.354;2024-02-23T08:25:00;94900.91;;;11.38;66.34
7834;BME280;3962;42.696;23.354;2024-02-23T08:27:26;94894.28;;;12.32;63.45
7834;BME280;3962;42.696;23.354;2024-02-23T08:29:57;94899.47;;;13.28;60.56
7834;BME280;3962;42.696;23.354;2024-02-23T08:32:24;94901.19;;;13.90;58.20
7834;BME280;3962;42.696;23.354;2024-02-23T08:34:51;94908.13;;;14.52;55.35
7834;BME280;3962;42.696;23.354;2024-02-23T08:37:24;94910.00;;;14.43;55.21
7834;BME280;3962;42.696;23.354;2024-02-23T08:39:51;94908.66;;;14.84;54.77
7834;BME280;3962;42.696;23.354;2024-02-23T08:42:18;94904.53;;;14.96;52.71
7834;BME280;3962;42.696;23.354;2024-02-23T08:44:45;94902.16;;;14.64;53.34
7834;BME280;3962;42.696;23.354;2024-02-23T08:47:13;94908.31;;;14.87;53.27
7834;BME280;3962;42.696;23.354;2024-02-23T08:49:40;94900.88;;;15.40;52.53
7834;BME280;3962;42.696;23.354;2024-02-23T08:52:06;94905.28;;;16.12;50.56
7834;BME280;3962;42.696;23.354;2024-02-23T08:54:33;94905.66;;;16.66;47.64
7834;BME280;3962;42.696;23.354;2024-02-23T08:57:00;94900.72;;;16.69;48.06
7834;BME280;3962;42.696;23.354;2024-02-23T08:59:27;94897.84;;;16.71;48.25
7834;BME280;3962;42.696;23.354;2024-02-23T09:01:54;94907.09;;;16.89;47.00
7834;BME280;3962;42.696;23.354;2024-02-23T09:04:22;94902.47;;;16.77;46.29
7834;BME280;3962;42.696;23.354;2024-02-23T09:06:49;94894.16;;;16.51;47.04
7834;BME280;3962;42.696;23.354;2024-02-23T09:09:16;94900.91;;;16.89;46.45
7834;BME280;3962;42.696;23.354;2024-02-23T09:11:43;94907.41;;;17.01;46.33
7834;BME280;3962;42.696;23.354;2024-02-23T09:14:10;94893.59;;;16.83;45.68
7834;BME280;3962;42.696;23.354;2024-02-23T09:16:37;94893.47;;;16.42;46.49
7834;BME280;3962;42.696;23.354;2024-02-23T09:19:04;94903.84;;;16.31;45.77
7834;BME280;3962;42.696;23.354;2024-02-23T09:21:33;94905.00;;;16.22;46.28
7834;BME280;3962;42.696;23.354;2024-02-23T09:24:00;94899.28;;;16.31;46.00
7834;BME280;3962;42.696;23.354;2024-02-23T09:26:26;94902.31;;;16.07;45.73
7834;BME280;3962;42.696;23.354;2024-02-23T09:28:53;94899.72;;;15.78;46.00
7834;BME280;3962;42.696;23.354;2024-02-23T09:31:20;94893.25;;;16.08;45.87
7834;BME280;3962;42.696;23.354;2024-02-23T09:33:48;94891.06;;;15.97;45.79
7834;BME280;3962;42.696;23.354;2024-02-23T09:36:16;94890.91;;;15.99;45.91
7834;BME280;3962;42.696;23.354;2024-02-23T09:38:44;94880.19;;;15.84;46.00
7834;BME280;3962;42.696;23.354;2024-02-23T09:41:15;94888.34;;;15.91;45.74
7834;BME280;3962;42.696;23.354;2024-02-23T09:43:46;94894.47;;;15.56;46.18
7834;BME280;3962;42.696;23.354;2024-02-23T09:46:13;94895.47;;;15.26;46.81
7834;BME280;3962;42.696;23.354;2024-02-23T09:48:41;94897.38;;;15.54;46.00
7834;BME280;3962;42.696;23.354;2024-02-23T09:51:09;94891.66;;;15.93;45.50
7834;BME280;3962;42.696;23.354;2024-02-23T09:53:37;94870.88;;;15.80;46.24
7834;BME280;3962;42.696;23.354;2024-02-23T09:56:06;94877.47;;;15.20;46.59
7834;BME280;3962;42.696;23.354;2024-02-23T09:58:35;94877.34;;;15.13;47.19
7834;BME280;3962;42.696;23.354;2024-02-23T10:01:03;94872.63;;;15.73;46.31
7834;BME280;3962;42.696;23.354;2024-02-23T10:03:30;94871.78;;;16.08;45.27
7834;BME280;3962;42.696;23.354;2024-02-23T10:05:57;94874.56;;;16.15;45.25
7834;BME280;3962;42.696;23.354;2024-02-23T10:08:26;94861.97;;;16.36;44.70
7834;BME280;3962;42.696;23.354;2024-02-23T10:10:54;94866.69;;;16.34;44.69
7834;BME280;3962;42.696;23.354;2024-02-23T10:13:23;94865.31;;;16.38;44.33
7834;BME280;3962;42.696;23.354;2024-02-23T10:15:51;94875.03;;;16.39;44.14
7834;BME280;3962;42.696;23.354;2024-02-23T10:18:18;94859.91;;;15.96;44.90
7834;BME280;3962;42.696;23.354;2024-02-23T10:20:45;94862.88;;;15.51;45.74
7834;BME280;3962;42.696;23.354;2024-02-23T10:23:12;94865.09;;;15.33;46.35
7834;BME280;3962;42.696;23.354;2024-02-23T10:25:40;94853.91;;;15.59;46.26
7834;BME280;3962;42.696;23.354;2024-02-23T10:28:09;94854.16;;;15.99;45.28
7834;BME280;3962;42.696;23.354;2024-02-23T10:30:37;94857.94;;;15.69;45.75
7834;BME280;3962;42.696;23.354;2024-02-23T10:33:05;94845.75;;;15.52;45.92
7834;BME280;3962;42.696;23.354;2024-02-23T10:35:32;94831.63;;;15.44;45.89
7834;BME280;3962;42.696;23.354;2024-02-23T10:38:01;94840.84;;;15.70;45.73
7834;BME280;3962;42.696;23.354;2024-02-23T10:40:30;94847.69;;;15.58;45.87
7834;BME280;3962;42.696;23.354;2024-02-23T10:43:02;94832.56;;;15.72;45.35
7834;BME280;3962;42.696;23.354;2024-02-23T10:45:29;94829.16;;;16.20;44.95
7834;BME280;3962;42.696;23.354;2024-02-23T10:47:59;94834.34;;;16.63;43.87
7834;BME280;3962;42.696;23.354;2024-02-23T10:50:26;94827.22;;;16.77;43.17
7834;BME280;3962;42.696;23.354;2024-02-23T10:52:54;94815.38;;;16.71;42.91
7834;BME280;3962;42.696;23.354;2024-02-23T10:55:22;94811.47;;;16.46;43.44
7834;BME280;3962;42.696;23.354;2024-02-23T10:57:53;94809.78;;;16.24;43.26
7834;BME280;3962;42.696;23.354;2024-02-23T11:00:21;94802.75;;;16.38;43.50
7834;BME280;3962;42.696;23.354;2024-02-23T11:02:51;94798.75;;;16.34;43.68
7834;BME280;3962;42.696;23.354;2024-02-23T11:05:21;94788.00;;;16.34;42.75
7834;BME280;3962;42.696;23.354;2024-02-23T11:07:49;94784.38;;;16.20;42.88
7834;BME280;3962;42.696;23.354;2024-02-23T11:10:16;94775.00;;;16.10;42.74
7834;BME280;3962;42.696;23.354;2024-02-23T11:12:44;94784.78;;;16.17;43.14
7834;BME280;3962;42.696;23.354;2024-02-23T11:15:26;94774.09;;;16.24;42.81
7834;BME280;3962;42.696;23.354;2024-02-23T11:17:52;94774.31;;;16.01;43.32
7834;BME280;3962;42.696;23.354;2024-02-23T11:20:20;94777.75;;;15.95;43.26
7834;BME280;3962;42.696;23.354;2024-02-23T11:22:52;94773.59;;;16.14;42.86
7834;BME280;3962;42.696;23.354;2024-02-23T11:25:20;94760.94;;;16.08;42.74
7834;BME280;3962;42.696;23.354;2024-02-23T11:27:49;94765.81;;;15.98;43.49
7834;BME280;3962;42.696;23.354;2024-02-23T11:30:17;94768.66;;;15.96;43.52
7834;BME280;3962;42.696;23.354;2024-02-23T11:32:45;94764.88;;;16.88;44.15
7834;BME280;3962;42.696;23.354;2024-02-23T11:35:14;94764.59;;;16.76;42.28
7834;BME280;3962;42.696;23.354;2024-02-23T11:37:47;94755.94;;;16.47;43.34
7834;BME280;3962;42.696;23.354;2024-02-23T11:40:14;94769.84;;;16.57;42.76
7834;BME280;3962;42.696;23.354;2024-02-23T11:42:42;94755.56;;;16.84;42.26
7834;BME280;3962;42.696;23.354;2024-02-23T11:45:09;94764.19;;;16.79;42.65
7834;BME280;3962;42.696;23.354;2024-02-23T11:47:36;94753.97;;;16.62;41.68
7834;BME280;3962;42.696;23.354;2024-02-23T11:50:04;94754.91;;;16.82;41.92
7834;BME280;3962;42.696;23.354;2024-02-23T11:52:31;94751.78;;;17.12;42.18
7834;BME280;3962;42.696;23.354;2024-02-23T11:54:59;94760.38;;;17.35;40.97
7834;BME280;3962;42.696;23.354;2024-02-23T11:57:26;94749.94;;;17.60;40.92
7834;BME280;3962;42.696;23.354;2024-02-23T11:59:53;94752.22;;;17.63;40.42
7834;BME280;3962;42.696;23.354;2024-02-23T12:02:24;94748.09;;;17.73;40.61
7834;BME280;3962;42.696;23.354;2024-02-23T12:04:50;94739.81;;;17.68;40.14
7834;BME280;3962;42.696;23.354;2024-02-23T12:07:18;94733.72;;;17.40;40.43
7834;BME280;3962;42.696;23.354;2024-02-23T12:09:46;94735.81;;;17.45;40.78
7834;BME280;3962;42.696;23.354;2024-02-23T12:12:14;94729.03;;;17.15;40.26
7834;BME280;3962;42.696;23.354;2024-02-23T12:14:42;94743.75;;;17.19;39.80
7834;BME280;3962;42.696;23.354;2024-02-23T12:17:08;94729.03;;;17.55;39.46
7834;BME280;3962;42.696;23.354;2024-02-23T12:19:37;94729.63;;;17.57;40.49
7834;BME280;3962;42.696;23.354;2024-02-23T12:22:04;94737.47;;;17.46;39.58
7834;BME280;3962;42.696;23.354;2024-02-23T12:24:31;94730.50;;;17.64;41.09
7834;BME280;3962;42.696;23.354;2024-02-23T12:26:58;94733.66;;;17.81;39.45
7834;BME280;3962;42.696;23.354;2024-02-23T12:29:26;94729.91;;;17.75;39.66
7834;BME280;3962;42.696;23.354;2024-02-23T12:32:02;94722.28;;;17.98;39.06
7834;BME280;3962;42.696;23.354;2024-02-23T12:34:29;94722.53;;;18.36;39.09
7834;BME280;3962;42.696;23.354;2024-02-23T12:36:56;94723.75;;;18.66;39.36
7834;BME280;3962;42.696;23.354;2024-02-23T12:39:23;94727.06;;;18.09;39.88
7834;BME280;3962;42.696;23.354;2024-02-23T12:41:49;94723.09;;;18.05;39.95
7834;BME280;3962;42.696;23.354;2024-02-23T12:44:17;94709.00;;;17.84;39.61
7834;BME280;3962;42.696;23.354;2024-02-23T12:46:45;94706.28;;;17.64;39.74
7834;BME280;3962;42.696;23.354;2024-02-23T12:49:12;94706.88;;;17.53;40.09
7834;BME280;3962;42.696;23.354;2024-02-23T12:51:39;94705.41;;;17.44;40.65
7834;BME280;3962;42.696;23.354;2024-02-23T12:54:06;94700.03;;;17.51;42.22
7834;BME280;3962;42.696;23.354;2024-02-23T12:56:33;94697.31;;;17.38;42.73
7834;BME280;3962;42.696;23.354;2024-02-23T12:58:59;94693.28;;;17.21;41.32
7834;BME280;3962;42.696;23.354;2024-02-23T13:01:26;94697.56;;;17.02;41.96
7834;BME280;3962;42.696;23.354;2024-02-23T13:03:54;94701.09;;;17.03;41.42
7834;BME280;3962;42.696;23.354;2024-02-23T13:06:21;94702.66;;;16.91;41.35
7834;BME280;3962;42.696;23.354;2024-02-23T13:08:48;94696.66;;;16.89;42.28
7834;BME280;3962;42.696;23.354;2024-02-23T13:11:15;94691.78;;;16.65;40.93
7834;BME280;3962;42.696;23.354;2024-02-23T13:13:42;94694.47;;;16.65;41.75
7834;BME280;3962;42.696;23.354;2024-02-23T13:16:09;94702.00;;;16.76;41.92
7834;BME280;3962;42.696;23.354;2024-02-23T13:18:38;94699.97;;;16.91;41.69